Арка

Карта отелей и гостиниц, располагающихся рядом с аэропортом Арка :

Арка Хабаровский край 60° 6' 6.0804" N, 142° 18' 6.48" E
Арка Хабаровский край 60° 6' 6.0804" N, 142° 18' 6.48" E
Код аэродрома ИКАО: 
UHOA
Код аэродрома RU: 
УХОА
Координаты: 
N60.10169° E142.30180°
Превышение над уровнем моря : 
230
Основная полоса: 
16/34
Курс магнитный: 
156,8/336,8
Длина основной ВПП: 
859
Ширина основной ВПП: 
60
Покрытие основной ВПП: 
Нетвёрдое (грунт)
Освещение ВПП: 
Нет
Тип: 
Аэродром
Класс аэродрома: 
Принадлежность: 
ГА
Статус: 
Действующий
Сайт: 
E-mail аэродрома: 
Страна: 
Россия
Регион: 
Хабаровский край
Город: 
Дополнительная информация: 
Горный.

Найти трансфер

С помощью этой формы Вы можете найти трансфер из аэропорта Арка в город, аэропорт или вокзал:

Карта места

Javascript is required to view this map.

Погода в аэропортах:

Авиационная погода в Павлодаре

Регион: 
Погода METAR: 
UASP 241700Z 29009G14MPS 9999 -RA OVC010 07/05 Q1007 R21/290260 NOSIG RMK QFE744/0992
Время наблюдения: 
2020-09-24T17:00:00Z
Температура C: 
7.0
Точка росы: 
5.0
Направление ветра: 
290
Скорость ветра (узлы): 
17
Метеорологическая видимость: 
6.21
Явления погоды: 
-RA
Условия полета: 
MVFR
Аэропорт подробнее: 

Авиационная погода в аэропорту Алыкель

Регион: 
Погода METAR: 
UOOO 241700Z 18003MPS 9999 -RA BKN019 06/05 Q1011 R19/29//50 NOSIG RMK QFE742/0989
Время наблюдения: 
2020-09-24T17:00:00Z
Температура C: 
6.0
Точка росы: 
5.0
Направление ветра: 
180
Скорость ветра (узлы): 
6
Метеорологическая видимость: 
6.21
Явления погоды: 
-RA
Условия полета: 
MVFR
Аэропорт подробнее: 

Авиационная погода в Абакане

Регион: 
Погода METAR: 
UNAA 241700Z 26007MPS 9999 -SHRA SCT041CB 09/06 Q1003 R20/CLRD65 TEMPO 27010G17MPS RMK QFE730
Время наблюдения: 
2020-09-24T17:00:00Z
Температура C: 
9.0
Точка росы: 
6.0
Направление ветра: 
260
Скорость ветра (узлы): 
14
Метеорологическая видимость: 
6.21
Явления погоды: 
-SHRA
Условия полета: 
VFR
Аэропорт подробнее: 

Авиационная погода в аэропорту Имени Германа Титова

Регион: 
Погода METAR: 
UNBB 241700Z 21003MPS 9000 -SHRA BKN021CB 05/04 Q1002 R24/290150 NOSIG RMK QFE729
Время наблюдения: 
2020-09-24T17:00:00Z
Температура C: 
5.0
Точка росы: 
4.0
Направление ветра: 
210
Скорость ветра (узлы): 
6
Метеорологическая видимость: 
5.59
Явления погоды: 
-SHRA
Условия полета: 
MVFR
Аэропорт подробнее: